Terminal Aerodrome Forecast
Issued by NWS Cleveland, OH

Home | Current Version | Previous Version | Graphics & Text | Print | Product List | Glossary On
Versions: 1 2 3 4 5 6 7 8 9 10 11 12 13 14 15 16 17 18 19 20 21 22 23 24
527
FTUS41 KCLE 161740 AAB
TAFCLE
TAF AMD
KCLE 161740Z 1618/1724 25015G25KT P6SM OVC015
     FM162100 25018G28KT P6SM VCSH OVC020
     FM170300 26015G25KT P6SM OVC010
     FM170900 26015G25KT 5SM -SHSN OVC010
     FM171300 27015G25KT P6SM OVC015
     FM172000 28014G22KT P6SM BKN030=

USA.gov is the U.S. government's official web portal to all federal, state and local government web resources and services.